Time;durP1;ratioP1;P1;durP2;ratioP2;P2;SDS_P1;SDS_P2;PMS_P1;PMS_P2;Temp;Humidity;BMP_temperature;BMP_pressure;BME280_temperature;BME280_humidity;BME280_pressure;Samples;Min_cycle;Max_cycle;Signal;HPM_P1;HPM_P2
2023/06/02 00:01:00;;;;;;;13.98;2.95;;;11.00;99.90;;;;;;5020341;28;20041;-84
2023/06/02 00:03:30;;;;;;;8.25;2.35;;;11.00;99.90;;;;;;5016714;28;20603;-84
2023/06/02 00:06:08;;;;;;;8.32;2.53;;;11.00;99.90;;;;;;5022638;28;20042;-84
2023/06/02 00:08:38;;;;;;;10.93;2.60;;;10.90;99.90;;;;;;5022501;28;20061;-85
2023/06/02 00:11:04;;;;;;;12.55;3.10;;;10.90;99.90;;;;;;5038035;28;20374;-84
2023/06/02 00:13:30;;;;;;;12.80;2.28;;;10.90;99.90;;;;;;5014588;28;20071;-85
2023/06/02 00:15:55;;;;;;;10.77;2.53;;;10.90;99.90;;;;;;5022689;28;20037;-85
2023/06/02 00:18:22;;;;;;;8.23;2.20;;;10.90;99.90;;;;;;5004067;28;20377;-85
2023/06/02 00:20:48;;;;;;;11.18;2.45;;;10.90;99.90;;;;;;5020473;28;20045;-85
2023/06/02 00:23:14;;;;;;;8.07;2.55;;;10.90;99.90;;;;;;5016884;28;20397;-84
2023/06/02 00:25:40;;;;;;;12.00;2.50;;;10.90;99.90;;;;;;5031272;28;20514;-84
2023/06/02 00:28:06;;;;;;;9.05;2.88;;;10.90;99.90;;;;;;5021633;28;20037;-84
2023/06/02 00:30:33;;;;;;;7.05;2.10;;;10.80;99.90;;;;;;5020520;28;20083;-84
2023/06/02 00:32:59;;;;;;;9.05;2.40;;;10.80;99.90;;;;;;5031852;28;20037;-85
2023/06/02 00:35:25;;;;;;;9.98;2.10;;;10.80;99.90;;;;;;5021344;28;20036;-85
2023/06/02 00:37:52;;;;;;;9.30;2.70;;;10.80;99.90;;;;;;5020287;28;20045;-85
2023/06/02 00:40:17;;;;;;;9.82;2.60;;;10.80;99.90;;;;;;5019850;28;20041;-85
2023/06/02 00:42:43;;;;;;;6.25;2.20;;;10.80;99.90;;;;;;5019560;28;20040;-85
2023/06/02 00:45:09;;;;;;;6.80;2.20;;;10.80;99.90;;;;;;5009952;28;20037;-85
2023/06/02 00:47:36;;;;;;;15.35;3.58;;;10.80;99.90;;;;;;5020698;28;20094;-84
2023/06/02 00:50:02;;;;;;;10.02;2.40;;;10.80;99.90;;;;;;5037456;28;20456;-85
2023/06/02 00:52:28;;;;;;;8.40;2.00;;;10.80;99.90;;;;;;5019315;28;20056;-84
2023/06/02 00:54:56;;;;;;;10.18;2.53;;;10.80;99.90;;;;;;5020587;28;20048;-84
2023/06/02 00:57:28;;;;;;;13.40;2.58;;;10.80;99.90;;;;;;5035119;28;20033;-84
2023/06/02 00:59:57;;;;;;;10.52;2.42;;;10.80;99.90;;;;;;5036805;28;20132;-85
2023/06/02 01:02:23;;;;;;;13.95;3.25;;;10.80;99.90;;;;;;5036123;28;20489;-84
2023/06/02 01:04:51;;;;;;;10.98;2.67;;;10.80;99.90;;;;;;5034609;28;20047;-84
2023/06/02 01:07:23;;;;;;;11.10;2.47;;;10.80;99.90;;;;;;5012735;28;20122;-83
2023/06/02 01:09:59;;;;;;;8.43;2.47;;;10.80;99.90;;;;;;5010897;28;20056;-84
2023/06/02 01:12:26;;;;;;;7.55;2.25;;;10.80;99.90;;;;;;5015851;28;20048;-84
2023/06/02 01:14:52;;;;;;;12.73;2.60;;;10.70;99.90;;;;;;5035930;28;20049;-84
2023/06/02 01:17:18;;;;;;;9.98;2.05;;;10.80;99.90;;;;;;5016183;28;20091;-85
2023/06/02 01:19:49;;;;;;;9.43;2.13;;;10.70;99.90;;;;;;5036067;28;20052;-85
2023/06/02 01:22:23;;;;;;;12.70;2.60;;;10.70;99.90;;;;;;5018549;28;20045;-85
2023/06/02 01:24:50;;;;;;;12.55;2.38;;;10.80;99.90;;;;;;5014216;28;20083;-85
2023/06/02 01:27:16;;;;;;;13.32;3.28;;;10.70;99.90;;;;;;5013048;28;20037;-84
2023/06/02 01:29:44;;;;;;;12.40;2.25;;;10.80;99.90;;;;;;5011898;28;20439;-85
2023/06/02 01:32:31;;;;;;;12.18;3.08;;;10.70;99.90;;;;;;5036480;28;20114;-85
2023/06/02 01:35:03;;;;;;;11.40;2.65;;;10.70;99.90;;;;;;5019945;28;20045;-84
2023/06/02 01:37:32;;;;;;;11.70;2.80;;;10.70;99.90;;;;;;5017979;28;20366;-85
2023/06/02 01:40:01;;;;;;;8.20;2.42;;;10.70;99.90;;;;;;5012917;28;20076;-84
2023/06/02 01:42:27;;;;;;;10.75;2.35;;;10.70;99.90;;;;;;5009391;28;20564;-84
2023/06/02 01:44:55;;;;;;;9.20;2.00;;;10.60;99.90;;;;;;5013273;28;20520;-84
2023/06/02 01:47:21;;;;;;;13.32;2.60;;;10.70;99.90;;;;;;5030727;28;20037;-83
2023/06/02 01:49:47;;;;;;;9.75;2.05;;;10.70;99.90;;;;;;5020180;28;20056;-83
2023/06/02 01:52:12;;;;;;;12.35;2.58;;;10.70;99.90;;;;;;5013963;28;20042;-85
2023/06/02 01:54:38;;;;;;;11.80;2.40;;;10.60;99.90;;;;;;5025378;28;20052;-85
2023/06/02 01:57:06;;;;;;;12.82;2.50;;;10.70;99.90;;;;;;5030791;28;20056;-83
2023/06/02 01:59:32;;;;;;;10.75;2.63;;;10.60;99.90;;;;;;5003319;28;20451;-84
2023/06/02 02:01:58;;;;;;;7.22;2.33;;;10.60;99.90;;;;;;5014078;28;20130;-85
2023/06/02 02:04:23;;;;;;;10.30;2.38;;;10.70;99.90;;;;;;5034410;28;20171;-84
2023/06/02 02:06:49;;;;;;;12.50;2.40;;;10.70;99.90;;;;;;5019300;28;20040;-85
2023/06/02 02:09:15;;;;;;;13.32;2.50;;;10.60;99.90;;;;;;5016910;28;20040;-85
2023/06/02 02:11:41;;;;;;;11.73;2.05;;;10.70;99.90;;;;;;5017910;28;20041;-84
2023/06/02 02:14:08;;;;;;;8.32;2.45;;;10.60;99.90;;;;;;5029669;28;20048;-85
2023/06/02 02:16:35;;;;;;;12.00;2.42;;;10.60;99.90;;;;;;5030882;28;20636;-84
2023/06/02 02:19:01;;;;;;;9.38;2.28;;;10.60;99.90;;;;;;5027380;28;20447;-85
2023/06/02 02:21:27;;;;;;;14.48;2.13;;;10.60;99.90;;;;;;5018377;28;20045;-84
2023/06/02 02:23:54;;;;;;;10.77;2.15;;;10.60;99.90;;;;;;5019473;28;20045;-85
2023/06/02 02:26:20;;;;;;;15.13;2.50;;;10.60;99.90;;;;;;5033241;28;20044;-85
2023/06/02 02:28:46;;;;;;;13.57;2.58;;;10.60;99.90;;;;;;5009248;28;20033;-85
2023/06/02 02:31:12;;;;;;;8.18;2.08;;;10.60;99.90;;;;;;5016278;28;20043;-85
2023/06/02 02:33:38;;;;;;;11.70;2.17;;;10.60;99.90;;;;;;5019016;28;20397;-85
2023/06/02 02:36:04;;;;;;;7.20;2.17;;;10.60;99.90;;;;;;5034451;28;20075;-85
2023/06/02 02:38:30;;;;;;;13.88;2.58;;;10.60;99.90;;;;;;5035442;28;20045;-83
2023/06/02 02:40:56;;;;;;;11.23;2.13;;;10.60;99.90;;;;;;5030304;28;20174;-84
2023/06/02 02:43:22;;;;;;;11.32;1.98;;;10.60;99.90;;;;;;5015389;28;20138;-84
2023/06/02 02:45:47;;;;;;;8.10;2.00;;;10.60;99.90;;;;;;5019613;28;20041;-84
2023/06/02 02:48:13;;;;;;;13.20;2.25;;;10.60;99.90;;;;;;5029899;28;20037;-85
2023/06/02 02:50:39;;;;;;;13.38;3.15;;;10.60;99.90;;;;;;5013982;28;20053;-85
2023/06/02 02:53:05;;;;;;;10.07;2.40;;;10.60;99.90;;;;;;5034569;28;20077;-86
2023/06/02 02:55:32;;;;;;;9.00;2.03;;;10.60;99.90;;;;;;5030216;28;20041;-85
2023/06/02 02:58:02;;;;;;;14.02;2.38;;;10.60;99.90;;;;;;5010180;28;20048;-85
2023/06/02 03:00:28;;;;;;;10.40;2.33;;;10.60;99.90;;;;;;5025437;28;20084;-85
2023/06/02 03:02:56;;;;;;;5.80;2.08;;;10.50;99.90;;;;;;5001174;28;20041;-84
2023/06/02 03:05:22;;;;;;;16.52;2.97;;;10.60;99.90;;;;;;5015723;28;20043;-85
2023/06/02 03:07:49;;;;;;;9.65;2.92;;;10.50;99.90;;;;;;5002167;28;20107;-85
2023/06/02 03:10:15;;;;;;;8.10;2.03;;;10.50;99.90;;;;;;5000972;28;20041;-84
2023/06/02 03:12:41;;;;;;;14.70;2.38;;;10.50;99.90;;;;;;5013134;28;20388;-85
2023/06/02 03:15:07;;;;;;;11.75;2.40;;;10.60;99.90;;;;;;5033688;28;20072;-85
2023/06/02 03:17:32;;;;;;;16.58;3.10;;;10.50;99.90;;;;;;5014276;28;20091;-85
2023/06/02 03:19:58;;;;;;;13.15;2.65;;;10.50;99.90;;;;;;5000803;28;20037;-85
2023/06/02 03:22:24;;;;;;;9.10;1.77;;;10.60;99.90;;;;;;5025038;28;20045;-84
2023/06/02 03:24:50;;;;;;;10.05;2.25;;;10.50;99.90;;;;;;5032929;28;20540;-85
2023/06/02 03:27:16;;;;;;;9.60;2.10;;;10.50;99.90;;;;;;5026279;28;20121;-85
2023/06/02 03:29:45;;;;;;;11.32;2.35;;;10.50;99.90;;;;;;5009116;28;20041;-85
2023/06/02 03:32:12;;;;;;;12.77;2.22;;;10.50;99.90;;;;;;5034650;28;20049;-84
2023/06/02 03:34:39;;;;;;;11.82;2.13;;;10.50;99.90;;;;;;5018215;28;20141;-84
2023/06/02 03:37:08;;;;;;;10.85;2.10;;;10.50;99.90;;;;;;5032737;28;20074;-85
2023/06/02 03:39:33;;;;;;;9.30;2.17;;;10.50;99.90;;;;;;5014733;28;20041;-84
2023/06/02 03:42:00;;;;;;;11.02;2.35;;;10.40;99.90;;;;;;5026998;28;20041;-84
2023/06/02 03:44:25;;;;;;;10.38;2.50;;;10.50;99.90;;;;;;5016381;28;20037;-85
2023/06/02 03:46:51;;;;;;;12.52;2.22;;;10.50;99.90;;;;;;4995663;28;20063;-84
2023/06/02 03:49:17;;;;;;;8.82;2.25;;;10.50;99.90;;;;;;5009742;28;20045;-85
2023/06/02 03:51:43;;;;;;;14.35;3.25;;;10.50;99.90;;;;;;5030680;28;20489;-84
2023/06/02 03:54:09;;;;;;;7.25;1.85;;;10.60;99.90;;;;;;5020072;28;20132;-86
2023/06/02 03:56:35;;;;;;;12.68;2.45;;;10.60;99.90;;;;;;5008715;28;20045;-85
2023/06/02 03:59:01;;;;;;;13.23;2.80;;;10.60;99.90;;;;;;5010769;28;20041;-85
2023/06/02 04:01:27;;;;;;;12.27;2.30;;;10.60;99.90;;;;;;5014914;28;20037;-85
2023/06/02 04:03:53;;;;;;;10.85;2.42;;;10.60;99.90;;;;;;5008020;28;20045;-84
2023/06/02 04:06:18;;;;;;;11.75;2.30;;;10.60;99.90;;;;;;5027453;28;20489;-84
2023/06/02 04:08:46;;;;;;;14.50;3.10;;;10.60;99.90;;;;;;5034100;28;20084;-84
2023/06/02 04:11:12;;;;;;;9.73;2.65;;;10.60;99.90;;;;;;4997654;28;20034;-85
2023/06/02 04:13:38;;;;;;;11.23;2.92;;;10.60;99.90;;;;;;5021886;28;20049;-85
2023/06/02 04:16:04;;;;;;;13.70;2.85;;;10.60;99.90;;;;;;5033396;28;20055;-84
2023/06/02 04:18:31;;;;;;;13.25;1.95;;;10.60;99.90;;;;;;4996891;28;20042;-84
2023/06/02 04:20:57;;;;;;;10.00;2.35;;;10.60;99.90;;;;;;5007590;28;20110;-85
2023/06/02 04:23:23;;;;;;;13.45;2.20;;;10.70;99.90;;;;;;5016380;28;20498;-85
2023/06/02 04:25:48;;;;;;;12.43;2.28;;;10.70;99.90;;;;;;5010370;28;20077;-85
2023/06/02 04:28:15;;;;;;;13.90;3.08;;;10.70;99.90;;;;;;5017287;28;20033;-86
2023/06/02 04:30:41;;;;;;;13.55;2.70;;;10.70;99.90;;;;;;5012433;28;20452;-86
2023/06/02 04:33:08;;;;;;;11.60;2.80;;;10.80;99.90;;;;;;5008033;28;20168;-85
2023/06/02 04:35:35;;;;;;;10.82;2.60;;;10.80;99.90;;;;;;5033266;28;20036;-83
2023/06/02 04:38:02;;;;;;;22.08;3.30;;;10.80;99.90;;;;;;5038474;28;20497;-85
2023/06/02 04:40:28;;;;;;;11.63;2.05;;;10.80;99.90;;;;;;5021473;28;20091;-85
2023/06/02 04:42:54;;;;;;;10.93;2.97;;;10.80;99.90;;;;;;5019953;28;20036;-84
2023/06/02 04:45:20;;;;;;;10.73;2.35;;;10.90;99.90;;;;;;5018764;28;20535;-84
2023/06/02 04:47:46;;;;;;;12.55;2.28;;;10.80;99.90;;;;;;5031945;28;20113;-85
2023/06/02 04:50:13;;;;;;;14.55;2.60;;;10.80;99.90;;;;;;5019388;28;20121;-84
2023/06/02 04:52:40;;;;;;;10.05;2.45;;;10.80;99.90;;;;;;5019800;28;20135;-86
2023/06/02 04:55:08;;;;;;;14.50;2.70;;;10.80;99.90;;;;;;5027344;28;20041;-85
2023/06/02 04:57:34;;;;;;;10.48;2.00;;;10.80;99.90;;;;;;5029721;28;20063;-84
2023/06/02 05:00:01;;;;;;;11.98;3.20;;;10.80;99.90;;;;;;4993997;28;20054;-84
2023/06/02 05:02:26;;;;;;;14.60;2.28;;;10.90;99.90;;;;;;5012026;28;20033;-85
2023/06/02 05:04:52;;;;;;;15.30;2.30;;;10.90;99.90;;;;;;5016965;28;20040;-83
2023/06/02 05:07:18;;;;;;;7.57;2.67;;;10.90;99.90;;;;;;4999511;28;20536;-84
2023/06/02 05:09:43;;;;;;;11.45;2.58;;;10.90;99.90;;;;;;5041579;28;20041;-85
2023/06/02 05:12:09;;;;;;;13.32;2.40;;;10.90;99.90;;;;;;5004429;28;20087;-85
2023/06/02 05:14:36;;;;;;;10.73;2.30;;;10.90;99.90;;;;;;5032008;28;20048;-84
2023/06/02 05:17:02;;;;;;;9.60;2.45;;;11.00;99.90;;;;;;5018302;28;20045;-84
2023/06/02 05:19:28;;;;;;;13.80;3.33;;;11.00;99.90;;;;;;5015752;28;20094;-85
2023/06/02 05:21:54;;;;;;;10.68;2.97;;;11.00;99.90;;;;;;5012724;28;20040;-83
2023/06/02 05:24:20;;;;;;;17.33;3.80;;;11.00;99.90;;;;;;4996797;28;20495;-85
2023/06/02 05:26:45;;;;;;;14.23;2.58;;;11.00;99.90;;;;;;5010591;28;20040;-85
2023/06/02 05:29:11;;;;;;;8.88;2.47;;;11.00;99.90;;;;;;5011215;28;20043;-83
2023/06/02 05:31:37;;;;;;;18.55;3.00;;;11.00;99.90;;;;;;5003636;28;20033;-83
2023/06/02 05:34:03;;;;;;;12.90;2.92;;;11.10;99.90;;;;;;5010712;28;20473;-83
2023/06/02 05:36:28;;;;;;;15.00;2.63;;;11.10;99.90;;;;;;5036633;28;20095;-83
2023/06/02 05:38:54;;;;;;;14.25;2.85;;;11.00;99.90;;;;;;5036918;28;20123;-85
2023/06/02 05:41:20;;;;;;;16.85;2.75;;;11.10;99.90;;;;;;5003836;28;20041;-84
2023/06/02 05:43:46;;;;;;;10.35;2.72;;;11.10;99.90;;;;;;5019240;28;20045;-82
2023/06/02 05:46:11;;;;;;;15.38;2.85;;;11.10;99.90;;;;;;5030843;28;20092;-84
2023/06/02 05:48:38;;;;;;;13.55;3.17;;;11.10;99.90;;;;;;5019977;28;20040;-84
2023/06/02 05:51:04;;;;;;;13.30;3.00;;;11.10;99.90;;;;;;5031707;28;20049;-83
2023/06/02 05:53:30;;;;;;;11.80;2.50;;;11.10;99.90;;;;;;5035550;28;20061;-83
2023/06/02 05:55:56;;;;;;;9.90;2.50;;;11.10;99.90;;;;;;5032713;28;20040;-83
2023/06/02 05:58:21;;;;;;;13.23;2.95;;;11.20;99.90;;;;;;5001887;28;20473;-84
2023/06/02 06:00:47;;;;;;;19.70;3.55;;;11.20;99.90;;;;;;5031612;28;20087;-86
2023/06/02 06:03:14;;;;;;;12.02;2.92;;;11.20;99.90;;;;;;5015248;28;20489;-83
2023/06/02 06:05:40;;;;;;;12.77;2.90;;;11.20;99.90;;;;;;5033044;28;20041;-84
2023/06/02 06:08:05;;;;;;;12.75;2.65;;;11.30;99.90;;;;;;5017654;28;20500;-83
2023/06/02 06:10:31;;;;;;;12.73;2.20;;;11.30;99.90;;;;;;5031696;28;20508;-84
2023/06/02 06:12:57;;;;;;;9.63;2.53;;;11.30;99.90;;;;;;5031892;28;20033;-84
2023/06/02 06:15:22;;;;;;;18.95;3.42;;;11.40;99.90;;;;;;4997172;28;20045;-85
2023/06/02 06:17:49;;;;;;;13.52;3.22;;;11.40;99.90;;;;;;5014949;28;20036;-85
2023/06/02 06:20:15;;;;;;;19.50;4.13;;;11.50;99.90;;;;;;5016143;28;20124;-85
2023/06/02 06:22:42;;;;;;;16.67;2.70;;;11.50;99.90;;;;;;5019361;28;20057;-85
2023/06/02 06:25:08;;;;;;;20.38;3.97;;;11.50;99.90;;;;;;5020973;28;20064;-86
2023/06/02 06:27:34;;;;;;;15.40;3.45;;;11.50;99.90;;;;;;5035675;28;20401;-85
2023/06/02 06:30:00;;;;;;;15.52;2.42;;;11.60;99.90;;;;;;5015390;28;20041;-85
2023/06/02 06:32:25;;;;;;;12.25;3.65;;;11.60;99.90;;;;;;5028929;28;20065;-85
2023/06/02 06:34:51;;;;;;;13.63;3.20;;;11.70;99.90;;;;;;5033617;28;20045;-85
2023/06/02 06:37:17;;;;;;;13.07;2.50;;;11.70;99.90;;;;;;4998177;28;20037;-85
2023/06/02 06:39:43;;;;;;;11.15;3.20;;;11.80;99.90;;;;;;4999161;28;20094;-85
2023/06/02 06:42:08;;;;;;;12.20;2.85;;;11.90;99.90;;;;;;5034791;28;20441;-86
2023/06/02 06:44:34;;;;;;;16.45;3.58;;;12.00;99.90;;;;;;5030152;28;20482;-84
2023/06/02 06:47:00;;;;;;;17.30;3.72;;;12.00;99.90;;;;;;5018535;28;20040;-91
2023/06/02 06:49:25;;;;;;;12.75;3.15;;;12.10;99.90;;;;;;5029702;28;20063;-89
2023/06/02 06:51:51;;;;;;;19.08;3.40;;;12.10;99.90;;;;;;4990682;28;20492;-87
2023/06/02 06:54:17;;;;;;;18.40;3.22;;;12.00;99.90;;;;;;5012912;28;20041;-86
2023/06/02 06:56:45;;;;;;;14.18;2.83;;;12.10;99.90;;;;;;5015180;28;20378;-87
2023/06/02 06:59:11;;;;;;;15.60;2.92;;;12.10;99.90;;;;;;5031703;28;20041;-86
2023/06/02 07:01:38;;;;;;;15.63;3.05;;;12.10;99.90;;;;;;5033499;28;20043;-86
2023/06/02 07:04:04;;;;;;;12.40;2.63;;;12.10;99.90;;;;;;5009325;28;20099;-84
2023/06/02 07:06:29;;;;;;;37.65;4.53;;;12.10;99.90;;;;;;5000646;28;20040;-86
2023/06/02 07:08:55;;;;;;;12.13;3.05;;;12.20;99.90;;;;;;5002574;28;20037;-87
2023/06/02 07:11:21;;;;;;;12.23;3.10;;;12.30;99.90;;;;;;5001005;28;20389;-86
2023/06/02 07:13:47;;;;;;;15.15;3.13;;;12.30;99.90;;;;;;4982973;28;20068;-86
2023/06/02 07:16:12;;;;;;;12.43;2.92;;;12.40;99.90;;;;;;4998288;28;20041;-86
2023/06/02 07:18:38;;;;;;;12.73;3.35;;;12.50;99.90;;;;;;5017096;28;20143;-85
2023/06/02 07:21:04;;;;;;;12.13;3.40;;;12.60;99.90;;;;;;4994115;28;20048;-87
2023/06/02 07:23:30;;;;;;;9.07;2.60;;;12.60;99.90;;;;;;4998287;28;20033;-86
2023/06/02 07:25:56;;;;;;;10.95;3.33;;;12.70;99.90;;;;;;5024576;28;20091;-86
2023/06/02 07:28:21;;;;;;;16.80;3.80;;;12.70;99.90;;;;;;5014265;28;20437;-86
2023/06/02 07:30:53;;;;;;;16.60;3.72;;;12.80;99.90;;;;;;5017067;28;20099;-86
2023/06/02 07:33:19;;;;;;;14.02;3.58;;;12.80;99.90;;;;;;5015673;28;20114;-86
2023/06/02 07:35:45;;;;;;;12.55;3.05;;;12.70;99.90;;;;;;5008821;28;20092;-87
2023/06/02 07:38:11;;;;;;;14.85;3.35;;;12.80;99.90;;;;;;5034598;28;20049;-86
2023/06/02 07:40:37;;;;;;;16.23;3.13;;;12.80;99.90;;;;;;5015613;28;20048;-86
2023/06/02 07:43:03;;;;;;;14.95;3.13;;;12.90;99.90;;;;;;5032550;28;20593;-86
2023/06/02 07:45:29;;;;;;;18.38;3.70;;;12.90;99.90;;;;;;5001192;28;20040;-85
2023/06/02 07:47:55;;;;;;;15.48;3.92;;;12.90;99.90;;;;;;5015045;28;20048;-86
2023/06/02 07:50:21;;;;;;;14.20;3.30;;;12.90;99.90;;;;;;5031533;28;20057;-86
2023/06/02 07:52:47;;;;;;;17.02;4.07;;;13.00;99.90;;;;;;5032518;28;20441;-86
2023/06/02 07:55:13;;;;;;;15.30;3.55;;;13.00;99.90;;;;;;4997218;28;20432;-84
2023/06/02 07:57:39;;;;;;;15.48;3.30;;;13.00;99.90;;;;;;5007292;28;20585;-85
2023/06/02 08:00:18;;;;;;;12.88;3.47;;;13.10;99.90;;;;;;5030263;28;20041;-84
2023/06/02 08:02:48;;;;;;;14.07;3.33;;;13.10;99.90;;;;;;5016429;28;20443;-85
2023/06/02 08:05:18;;;;;;;16.58;4.05;;;13.10;99.90;;;;;;5014023;28;20040;-85
2023/06/02 08:07:44;;;;;;;17.48;3.40;;;13.20;99.90;;;;;;5029132;28;20124;-86
2023/06/02 08:10:11;;;;;;;12.00;3.13;;;13.20;99.90;;;;;;5016486;28;20106;-84
2023/06/02 08:12:37;;;;;;;13.40;3.72;;;13.30;99.90;;;;;;5019576;28;20033;-83
2023/06/02 08:15:04;;;;;;;17.00;3.40;;;13.40;99.90;;;;;;5003617;28;20131;-83
2023/06/02 08:17:30;;;;;;;21.50;4.47;;;13.40;99.90;;;;;;5019905;28;20492;-84
2023/06/02 08:19:57;;;;;;;22.45;4.30;;;13.40;99.90;;;;;;4996211;28;20120;-83
2023/06/02 08:22:25;;;;;;;16.20;3.97;;;13.40;99.90;;;;;;5007663;28;20432;-84
2023/06/02 08:24:52;;;;;;;17.33;3.97;;;13.50;99.90;;;;;;5019184;28;20045;-84
2023/06/02 08:27:19;;;;;;;16.10;3.17;;;13.50;99.90;;;;;;5018472;28;20036;-85
2023/06/02 08:29:45;;;;;;;15.18;3.63;;;13.50;99.90;;;;;;5000475;28;20037;-85
2023/06/02 08:32:11;;;;;;;19.02;3.92;;;13.60;99.90;;;;;;5001144;28;20094;-86
2023/06/02 08:34:37;;;;;;;18.67;4.25;;;13.70;99.90;;;;;;5016238;28;20037;-86
2023/06/02 08:37:03;;;;;;;13.77;3.45;;;13.80;99.90;;;;;;4996512;28;20073;-84
2023/06/02 08:39:29;;;;;;;13.40;3.08;;;13.80;99.90;;;;;;5020075;28;20485;-84
2023/06/02 08:41:55;;;;;;;18.33;3.60;;;13.80;99.90;;;;;;5035238;28;20041;-86
2023/06/02 08:44:21;;;;;;;15.27;3.78;;;13.90;99.90;;;;;;5035065;28;20041;-84
2023/06/02 08:46:48;;;;;;;16.17;3.85;;;14.00;99.90;;;;;;5019931;28;20040;-85
2023/06/02 08:49:17;;;;;;;18.55;4.28;;;14.10;99.90;;;;;;5023264;28;20072;-83
2023/06/02 08:51:44;;;;;;;20.30;4.53;;;14.20;99.90;;;;;;4997468;28;20064;-84
2023/06/02 08:54:14;;;;;;;17.05;4.00;;;14.20;99.90;;;;;;5026093;28;20049;-84
2023/06/02 08:56:41;;;;;;;16.45;4.38;;;14.30;99.90;;;;;;5031568;28;20053;-84
2023/06/02 08:59:08;;;;;;;16.25;4.00;;;14.40;99.90;;;;;;5012659;28;20074;-85
2023/06/02 09:01:34;;;;;;;16.00;4.38;;;14.50;99.90;;;;;;5031773;28;20072;-83
2023/06/02 09:04:00;;;;;;;17.15;3.95;;;14.70;99.90;;;;;;4995717;28;20045;-85
2023/06/02 09:06:26;;;;;;;17.63;4.50;;;14.80;99.90;;;;;;5012274;28;20375;-83
2023/06/02 09:08:53;;;;;;;17.38;4.75;;;15.00;99.90;;;;;;5000834;28;20163;-85
2023/06/02 09:11:19;;;;;;;17.98;3.97;;;15.30;99.90;;;;;;5028269;28;20612;-85
2023/06/02 09:13:45;;;;;;;18.90;4.13;;;15.40;99.90;;;;;;5014612;28;20128;-86
2023/06/02 09:16:10;;;;;;;17.58;4.30;;;15.50;99.90;;;;;;5018518;28;20175;-86
2023/06/02 09:18:36;;;;;;;15.60;3.65;;;15.60;99.90;;;;;;5030124;28;20052;-85
2023/06/02 09:21:03;;;;;;;15.35;4.38;;;15.60;99.90;;;;;;5032964;28;20095;-85
2023/06/02 09:23:45;;;;;;;18.30;4.80;;;15.60;99.90;;;;;;5006639;28;20045;-86
2023/06/02 09:26:28;;;;;;;15.00;4.03;;;15.70;99.90;;;;;;5033301;28;20041;-85
2023/06/02 09:29:00;;;;;;;15.60;4.00;;;15.70;99.90;;;;;;5010528;28;20653;-86
2023/06/02 09:31:29;;;;;;;18.45;4.13;;;15.80;99.90;;;;;;5014941;28;20506;-87
2023/06/02 09:34:00;;;;;;;17.08;4.32;;;16.00;99.90;;;;;;5035765;28;20063;-85
2023/06/02 09:36:29;;;;;;;12.98;4.03;;;16.00;99.90;;;;;;5019689;28;20080;-86
2023/06/02 09:38:56;;;;;;;17.13;4.05;;;16.10;99.90;;;;;;5013898;28;20050;-86
2023/06/02 09:41:22;;;;;;;15.82;3.95;;;16.10;99.90;;;;;;5011642;28;20531;-85
2023/06/02 09:43:48;;;;;;;13.90;4.15;;;16.10;99.90;;;;;;5019103;28;20041;-86
2023/06/02 09:46:14;;;;;;;14.13;4.00;;;16.10;99.90;;;;;;5032584;28;20112;-86
2023/06/02 09:48:55;;;;;;;20.40;4.50;;;16.10;99.90;;;;;;5020748;28;20033;-86
2023/06/02 09:51:25;;;;;;;16.52;3.70;;;16.20;99.90;;;;;;5018469;28;20152;-87
2023/06/02 09:53:51;;;;;;;13.90;3.72;;;16.30;99.90;;;;;;5017671;28;20123;-87
2023/06/02 09:56:21;;;;;;;19.90;4.38;;;16.50;99.90;;;;;;5009513;28;20409;-85
2023/06/02 09:58:47;;;;;;;21.67;5.00;;;16.80;99.90;;;;;;5006585;28;20052;-87
2023/06/02 10:01:15;;;;;;;46.17;5.45;;;17.10;99.90;;;;;;5011851;28;20037;-87
2023/06/02 10:03:44;;;;;;;16.50;4.03;;;17.30;99.90;;;;;;5003673;28;20053;-87
2023/06/02 10:06:15;;;;;;;16.35;3.95;;;17.40;99.90;;;;;;5042162;28;20037;-87
2023/06/02 10:09:01;;;;;;;18.38;3.08;;;17.50;99.90;;;;;;5034999;28;20033;-86
2023/06/02 10:11:35;;;;;;;15.60;3.72;;;17.60;99.90;;;;;;5019802;28;20068;-86
2023/06/02 10:14:23;;;;;;;13.00;3.17;;;17.70;99.90;;;;;;5034066;28;20033;-86
2023/06/02 10:17:21;;;;;;;11.65;3.97;;;17.80;99.90;;;;;;5007841;28;20041;-87
2023/06/02 10:20:16;;;;;;;9.40;3.30;;;17.90;99.90;;;;;;5023417;28;20049;-88
2023/06/02 10:23:02;;;;;;;14.68;3.90;;;17.90;99.90;;;;;;5027959;28;20116;-87
2023/06/02 10:25:39;;;;;;;11.57;3.22;;;17.90;99.90;;;;;;5017659;28;20076;-87
2023/06/02 10:28:08;;;;;;;11.48;3.42;;;18.00;99.90;;;;;;5028152;28;20448;-85
2023/06/02 10:30:37;;;;;;;10.95;3.55;;;18.10;99.90;;;;;;5001297;28;20037;-87
2023/06/02 10:33:03;;;;;;;12.48;3.05;;;18.20;99.90;;;;;;5029349;28;20038;-87
2023/06/02 10:35:59;;;;;;;14.00;2.80;;;18.20;99.90;;;;;;5017994;28;20128;-87
2023/06/02 10:38:26;;;;;;;10.40;3.40;;;18.10;99.90;;;;;;5011347;28;20045;-87
2023/06/02 10:40:52;;;;;;;16.30;3.38;;;18.00;99.90;;;;;;5014638;28;20128;-86
2023/06/02 10:43:18;;;;;;;9.52;3.47;;;18.00;99.90;;;;;;5017053;28;20111;-87
2023/06/02 10:45:44;;;;;;;8.00;2.28;;;18.00;99.90;;;;;;5017523;28;20136;-85
2023/06/02 10:48:38;;;;;;;12.35;2.97;;;18.00;99.90;;;;;;5017675;28;20115;-86
2023/06/02 10:51:12;;;;;;;9.02;2.53;;;18.00;99.90;;;;;;5012752;28;20485;-86
2023/06/02 10:54:02;;;;;;;10.98;2.70;;;17.90;99.90;;;;;;5014359;28;20045;-86
2023/06/02 10:56:39;;;;;;;10.75;2.50;;;17.90;99.90;;;;;;5019663;28;20090;-87
2023/06/02 10:59:06;;;;;;;9.25;2.63;;;17.80;99.90;;;;;;5022170;28;20042;-86
2023/06/02 11:01:49;;;;;;;7.50;2.40;;;17.90;99.90;;;;;;5027513;28;20049;-87
2023/06/02 11:04:35;;;;;;;7.72;2.13;;;18.00;99.90;;;;;;5018049;28;20087;-86
2023/06/02 11:07:25;;;;;;;6.28;2.05;;;18.10;99.90;;;;;;5027780;28;20037;-87
2023/06/02 11:10:00;;;;;;;8.60;2.22;;;18.20;99.90;;;;;;5014368;28;20064;-86
2023/06/02 11:12:50;;;;;;;7.87;2.47;;;18.30;99.90;;;;;;5032369;28;20105;-88
2023/06/02 11:15:20;;;;;;;7.68;2.08;;;18.40;99.90;;;;;;5013619;28;20386;-87
2023/06/02 11:17:49;;;;;;;6.03;2.28;;;18.60;99.90;;;;;;5018601;28;21551;-87
2023/06/02 11:20:17;;;;;;;8.18;1.80;;;18.70;99.90;;;;;;5017101;28;20114;-87
2023/06/02 11:22:43;;;;;;;5.95;1.90;;;18.80;99.90;;;;;;5034186;28;20083;-83
2023/06/02 11:25:10;;;;;;;9.90;2.20;;;18.80;99.90;;;;;;5011498;28;20048;-87
2023/06/02 11:27:41;;;;;;;9.02;2.35;;;18.90;99.90;;;;;;5011533;28;20033;-86
2023/06/02 11:30:10;;;;;;;8.02;2.05;;;19.00;99.90;;;;;;5030443;28;20047;-86
2023/06/02 11:32:36;;;;;;;5.78;1.90;;;19.10;99.90;;;;;;5028563;28;20063;-87
2023/06/02 11:35:05;;;;;;;10.27;2.28;;;19.10;99.90;;;;;;5010872;28;20044;-86
2023/06/02 11:37:31;;;;;;;7.88;2.08;;;19.10;99.90;;;;;;4998767;28;20040;-85
2023/06/02 11:39:57;;;;;;;6.97;2.05;;;19.10;99.90;;;;;;5012480;28;20358;-86
2023/06/02 11:42:37;;;;;;;5.15;1.65;;;19.30;99.90;;;;;;5009417;28;20116;-87
2023/06/02 11:45:04;;;;;;;8.38;2.00;;;19.50;99.90;;;;;;5033543;28;20037;-86
2023/06/02 11:47:30;;;;;;;5.82;2.00;;;19.80;99.90;;;;;;5002992;28;20044;-86
2023/06/02 11:49:56;;;;;;;9.93;2.20;;;20.10;99.90;;;;;;5021008;28;20040;-84
2023/06/02 11:52:23;;;;;;;5.47;2.03;;;20.20;99.90;;;;;;5016696;28;20057;-86
2023/06/02 11:54:54;;;;;;;7.35;2.10;;;20.10;99.60;;;;;;5014400;28;20094;-85
2023/06/02 11:57:31;;;;;;;8.63;2.05;;;20.00;99.60;;;;;;5000298;28;20575;-86
2023/06/02 12:00:09;;;;;;;7.25;1.80;;;19.90;98.80;;;;;;5012636;28;20041;-86
2023/06/02 12:02:39;;;;;;;6.97;2.20;;;19.80;97.20;;;;;;5024060;28;20370;-85
2023/06/02 12:05:12;;;;;;;5.70;1.73;;;19.80;98.70;;;;;;5029261;28;20037;-85
2023/06/02 12:07:38;;;;;;;6.03;1.95;;;20.00;97.80;;;;;;5041998;28;20073;-87
2023/06/02 12:10:05;;;;;;;6.63;1.90;;;20.20;98.80;;;;;;5013306;28;20220;-86
2023/06/02 12:12:31;;;;;;;5.38;1.60;;;20.40;98.10;;;;;;5018847;28;20560;-87
2023/06/02 12:14:57;;;;;;;6.65;1.90;;;20.50;97.60;;;;;;4992355;28;20125;-87
2023/06/02 12:17:23;;;;;;;3.72;1.77;;;20.60;96.80;;;;;;5000851;28;20048;-86
2023/06/02 12:19:58;;;;;;;5.13;1.75;;;20.60;96.70;;;;;;5029091;28;20044;-86
2023/06/02 12:22:24;;;;;;;5.68;1.73;;;20.70;96.40;;;;;;5019879;28;20413;-86
2023/06/02 12:24:50;;;;;;;10.98;1.90;;;20.60;95.80;;;;;;5015334;28;20045;-87
2023/06/02 12:27:23;;;;;;;6.40;1.55;;;20.50;95.30;;;;;;5034267;28;20033;-86
2023/06/02 12:29:48;;;;;;;3.85;1.60;;;20.50;95.30;;;;;;5028358;28;20166;-87
2023/06/02 12:32:25;;;;;;;4.22;1.70;;;20.60;95.40;;;;;;5013363;28;20117;-86
2023/06/02 12:34:50;;;;;;;3.42;1.55;;;20.60;94.60;;;;;;4997394;28;20081;-86
2023/06/02 12:37:17;;;;;;;5.28;1.50;;;20.80;95.60;;;;;;5010579;28;20123;-87
2023/06/02 12:39:43;;;;;;;10.85;1.60;;;21.10;94.90;;;;;;4999048;28;20041;-86
2023/06/02 12:42:13;;;;;;;4.43;1.45;;;21.50;94.70;;;;;;5012002;28;20599;-86
2023/06/02 12:44:39;;;;;;;4.80;1.40;;;21.60;93.90;;;;;;5048082;28;20055;-86